sensor_id;sensor_type;location;lat;lon;timestamp;pressure;altitude;pressure_sealevel;temperature;humidity
36354;BME280;22383;51.114;13.666;2023-07-13T00:02:26;69387.72;;;19.89;100.00
36354;BME280;22383;51.114;13.666;2023-07-13T00:04:54;69397.06;;;19.93;100.00
36354;BME280;22383;51.114;13.666;2023-07-13T00:07:22;69387.16;;;19.89;100.00
36354;BME280;22383;51.114;13.666;2023-07-13T00:09:51;69382.97;;;19.82;100.00
36354;BME280;22383;51.114;13.666;2023-07-13T00:12:25;69383.56;;;19.83;100.00
36354;BME280;22383;51.114;13.666;2023-07-13T00:14:53;69378.56;;;19.81;100.00
36354;BME280;22383;51.114;13.666;2023-07-13T00:17:21;69382.00;;;19.84;100.00
36354;BME280;22383;51.114;13.666;2023-07-13T00:19:49;69392.13;;;19.91;100.00
36354;BME280;22383;51.114;13.666;2023-07-13T00:22:16;69382.97;;;19.82;100.00
36354;BME280;22383;51.114;13.666;2023-07-13T00:24:45;69364.47;;;19.71;100.00
36354;BME280;22383;51.114;13.666;2023-07-13T00:27:13;69374.56;;;19.77;100.00
36354;BME280;22383;51.114;13.666;2023-07-13T00:29:41;69360.84;;;19.65;100.00
36354;BME280;22383;51.114;13.666;2023-07-13T00:32:09;69361.84;;;19.63;100.00
36354;BME280;22383;51.114;13.666;2023-07-13T00:34:38;69351.56;;;19.54;100.00
36354;BME280;22383;51.114;13.666;2023-07-13T00:37:06;69349.63;;;19.57;100.00
36354;BME280;22383;51.114;13.666;2023-07-13T00:39:34;69346.03;;;19.52;100.00
36354;BME280;22383;51.114;13.666;2023-07-13T00:42:02;69354.59;;;19.59;100.00
36354;BME280;22383;51.114;13.666;2023-07-13T00:44:30;69361.84;;;19.63;100.00
36354;BME280;22383;51.114;13.666;2023-07-13T00:46:58;69368.28;;;19.72;100.00
36354;BME280;22383;51.114;13.666;2023-07-13T00:49:26;69379.94;;;19.77;100.00
36354;BME280;22383;51.114;13.666;2023-07-13T00:52:07;69391.69;;;19.93;100.00
36354;BME280;22383;51.114;13.666;2023-07-13T00:54:42;69380.69;;;19.80;100.00
36354;BME280;22383;51.114;13.666;2023-07-13T00:57:14;69379.94;;;19.77;100.00
36354;BME280;22383;51.114;13.666;2023-07-13T00:59:49;69370.41;;;19.71;100.00
36354;BME280;22383;51.114;13.666;2023-07-13T01:02:17;69364.28;;;19.68;100.00
36354;BME280;22383;51.114;13.666;2023-07-13T01:04:45;69359.38;;;19.59;100.00
36354;BME280;22383;51.114;13.666;2023-07-13T01:07:13;69353.69;;;19.54;100.00
36354;BME280;22383;51.114;13.666;2023-07-13T01:09:41;69345.44;;;19.51;100.00
36354;BME280;22383;51.114;13.666;2023-07-13T01:12:08;69339.41;;;19.41;100.00
36354;BME280;22383;51.114;13.666;2023-07-13T01:14:36;69328.91;;;19.36;100.00
36354;BME280;22383;51.114;13.666;2023-07-13T01:17:03;69325.53;;;19.26;100.00
36354;BME280;22383;51.114;13.666;2023-07-13T01:19:44;69325.31;;;19.31;100.00
36354;BME280;22383;51.114;13.666;2023-07-13T01:22:15;69331.44;;;19.34;100.00
36354;BME280;22383;51.114;13.666;2023-07-13T01:24:46;69334.44;;;19.39;100.00
36354;BME280;22383;51.114;13.666;2023-07-13T01:27:19;69343.00;;;19.46;100.00
36354;BME280;22383;51.114;13.666;2023-07-13T01:29:48;69324.75;;;19.30;100.00
36354;BME280;22383;51.114;13.666;2023-07-13T01:32:19;69313.34;;;19.20;100.00
36354;BME280;22383;51.114;13.666;2023-07-13T01:34:51;69321.16;;;19.24;100.00
36354;BME280;22383;51.114;13.666;2023-07-13T01:37:23;69325.72;;;19.29;100.00
36354;BME280;22383;51.114;13.666;2023-07-13T01:44:04;69326.63;;;19.34;100.00
36354;BME280;22383;51.114;13.666;2023-07-13T01:46:32;69339.75;;;19.46;100.00
36354;BME280;22383;51.114;13.666;2023-07-13T01:48:59;69329.13;;;19.32;100.00
36354;BME280;22383;51.114;13.666;2023-07-13T01:51:27;69305.50;;;19.15;100.00
36354;BME280;22383;51.114;13.666;2023-07-13T01:53:55;69301.53;;;19.12;100.00
36354;BME280;22383;51.114;13.666;2023-07-13T01:56:23;69273.75;;;18.89;100.00
36354;BME280;22383;51.114;13.666;2023-07-13T01:58:51;69258.16;;;18.73;100.00
36354;BME280;22383;51.114;13.666;2023-07-13T02:01:19;69261.22;;;18.70;100.00
36354;BME280;22383;51.114;13.666;2023-07-13T02:03:46;69262.56;;;18.74;100.00
36354;BME280;22383;51.114;13.666;2023-07-13T02:06:14;69251.13;;;18.64;100.00
36354;BME280;22383;51.114;13.666;2023-07-13T02:08:41;69248.28;;;18.61;100.00
36354;BME280;22383;51.114;13.666;2023-07-13T02:11:10;69241.44;;;18.55;100.00
36354;BME280;22383;51.114;13.666;2023-07-13T02:13:38;69230.03;;;18.45;100.00
36354;BME280;22383;51.114;13.666;2023-07-13T02:16:05;69228.31;;;18.43;100.00
36354;BME280;22383;51.114;13.666;2023-07-13T02:18:33;69219.78;;;18.36;100.00
36354;BME280;22383;51.114;13.666;2023-07-13T02:21:01;69216.13;;;18.37;100.00
36354;BME280;22383;51.114;13.666;2023-07-13T02:23:30;69210.25;;;18.29;100.00
36354;BME280;22383;51.114;13.666;2023-07-13T02:25:59;69209.50;;;18.26;100.00
36354;BME280;22383;51.114;13.666;2023-07-13T02:28:28;69207.22;;;18.24;100.00
36354;BME280;22383;51.114;13.666;2023-07-13T02:30:55;69202.25;;;18.22;100.00
36354;BME280;22383;51.114;13.666;2023-07-13T02:33:23;69204.53;;;18.24;100.00
36354;BME280;22383;51.114;13.666;2023-07-13T02:35:50;69202.09;;;18.20;100.00
36354;BME280;22383;51.114;13.666;2023-07-13T02:38:19;69201.34;;;18.17;100.00
36354;BME280;22383;51.114;13.666;2023-07-13T02:40:46;69198.09;;;18.16;100.00
36354;BME280;22383;51.114;13.666;2023-07-13T02:43:14;69201.91;;;18.17;100.00
36354;BME280;22383;51.114;13.666;2023-07-13T02:45:45;69201.53;;;18.19;100.00
36354;BME280;22383;51.114;13.666;2023-07-13T02:48:14;69200.94;;;18.19;100.00
36354;BME280;22383;51.114;13.666;2023-07-13T02:50:41;69201.69;;;18.22;100.00
36354;BME280;22383;51.114;13.666;2023-07-13T02:53:09;69204.94;;;18.22;100.00
36354;BME280;22383;51.114;13.666;2023-07-13T02:55:36;69203.41;;;18.23;100.00
36354;BME280;22383;51.114;13.666;2023-07-13T02:58:04;69192.72;;;18.16;100.00
36354;BME280;22383;51.114;13.666;2023-07-13T03:00:33;69195.66;;;18.11;100.00
36354;BME280;22383;51.114;13.666;2023-07-13T03:03:01;69185.00;;;18.04;100.00
36354;BME280;22383;51.114;13.666;2023-07-13T03:05:29;69178.88;;;18.01;100.00
36354;BME280;22383;51.114;13.666;2023-07-13T03:07:58;69183.09;;;18.00;100.00
36354;BME280;22383;51.114;13.666;2023-07-13T03:10:25;69179.09;;;17.97;100.00
36354;BME280;22383;51.114;13.666;2023-07-13T03:12:53;69164.06;;;17.88;100.00
36354;BME280;22383;51.114;13.666;2023-07-13T03:15:24;69159.88;;;17.82;100.00
36354;BME280;22383;51.114;13.666;2023-07-13T03:17:54;69158.34;;;17.83;100.00
36354;BME280;22383;51.114;13.666;2023-07-13T03:20:22;69157.78;;;17.82;100.00
36354;BME280;22383;51.114;13.666;2023-07-13T03:22:50;69158.94;;;17.83;100.00
36354;BME280;22383;51.114;13.666;2023-07-13T03:25:18;69158.56;;;17.78;100.00
36354;BME280;22383;51.114;13.666;2023-07-13T03:27:46;69151.50;;;17.76;100.00
36354;BME280;22383;51.114;13.666;2023-07-13T03:30:13;69151.31;;;17.74;100.00
36354;BME280;22383;51.114;13.666;2023-07-13T03:32:44;69152.31;;;17.72;100.00
36354;BME280;22383;51.114;13.666;2023-07-13T03:35:12;69141.25;;;17.67;100.00
36354;BME280;22383;51.114;13.666;2023-07-13T03:37:40;69119.97;;;17.46;100.00
36354;BME280;22383;51.114;13.666;2023-07-13T03:40:16;69105.00;;;17.30;100.00
36354;BME280;22383;51.114;13.666;2023-07-13T03:42:45;69109.72;;;17.36;100.00
36354;BME280;22383;51.114;13.666;2023-07-13T03:45:16;69105.53;;;17.37;100.00
36354;BME280;22383;51.114;13.666;2023-07-13T03:47:44;69112.19;;;17.41;100.00
36354;BME280;22383;51.114;13.666;2023-07-13T03:50:11;69104.44;;;17.29;100.00
36354;BME280;22383;51.114;13.666;2023-07-13T03:52:40;69096.22;;;17.27;100.00
36354;BME280;22383;51.114;13.666;2023-07-13T03:55:08;69087.53;;;17.16;100.00
36354;BME280;22383;51.114;13.666;2023-07-13T03:57:36;69074.97;;;17.05;100.00
36354;BME280;22383;51.114;13.666;2023-07-13T04:00:08;69050.25;;;16.88;100.00
36354;BME280;22383;51.114;13.666;2023-07-13T04:02:41;69037.94;;;16.72;100.00
36354;BME280;22383;51.114;13.666;2023-07-13T04:05:09;69032.22;;;16.67;100.00
36354;BME280;22383;51.114;13.666;2023-07-13T04:07:36;69037.19;;;16.69;100.00
36354;BME280;22383;51.114;13.666;2023-07-13T04:10:06;69038.50;;;16.72;100.00
36354;BME280;22383;51.114;13.666;2023-07-13T04:12:34;69049.88;;;16.82;100.00
36354;BME280;22383;51.114;13.666;2023-07-13T04:15:01;69056.75;;;16.89;100.00
36354;BME280;22383;51.114;13.666;2023-07-13T04:17:29;69069.28;;;17.00;100.00
36354;BME280;22383;51.114;13.666;2023-07-13T04:19:57;69078.22;;;17.06;100.00
36354;BME280;22383;51.114;13.666;2023-07-13T04:22:25;69082.94;;;17.12;100.00
36354;BME280;22383;51.114;13.666;2023-07-13T04:24:52;69096.81;;;17.27;100.00
36354;BME280;22383;51.114;13.666;2023-07-13T04:27:20;69096.81;;;17.27;100.00
36354;BME280;22383;51.114;13.666;2023-07-13T04:29:50;69086.22;;;17.13;100.00
36354;BME280;22383;51.114;13.666;2023-07-13T04:32:18;69077.44;;;17.10;100.00
36354;BME280;22383;51.114;13.666;2023-07-13T04:34:46;69075.53;;;17.06;100.00
36354;BME280;22383;51.114;13.666;2023-07-13T04:37:13;69075.72;;;17.08;100.00
36354;BME280;22383;51.114;13.666;2023-07-13T04:39:41;69076.53;;;17.04;100.00
36354;BME280;22383;51.114;13.666;2023-07-13T04:42:09;69078.41;;;17.08;100.00
36354;BME280;22383;51.114;13.666;2023-07-13T04:44:36;69085.44;;;17.10;100.00
36354;BME280;22383;51.114;13.666;2023-07-13T04:47:04;69076.47;;;17.11;100.00
36354;BME280;22383;51.114;13.666;2023-07-13T04:49:31;69075.16;;;17.08;100.00
36354;BME280;22383;51.114;13.666;2023-07-13T04:51:59;69076.53;;;17.04;100.00
36354;BME280;22383;51.114;13.666;2023-07-13T04:54:26;69093.78;;;17.22;100.00
36354;BME280;22383;51.114;13.666;2023-07-13T04:56:54;69094.53;;;17.25;100.00
36354;BME280;22383;51.114;13.666;2023-07-13T04:59:22;69110.28;;;17.37;100.00
36354;BME280;22383;51.114;13.666;2023-07-13T05:01:49;69119.03;;;17.47;100.00
36354;BME280;22383;51.114;13.666;2023-07-13T05:04:17;69123.25;;;17.46;100.00
36354;BME280;22383;51.114;13.666;2023-07-13T05:06:45;69121.88;;;17.50;100.00
36354;BME280;22383;51.114;13.666;2023-07-13T05:09:12;69143.59;;;17.62;100.00
36354;BME280;22383;51.114;13.666;2023-07-13T05:11:40;69155.72;;;17.75;100.00
36354;BME280;22383;51.114;13.666;2023-07-13T05:14:07;69168.44;;;17.89;100.00
36354;BME280;22383;51.114;13.666;2023-07-13T05:16:36;69182.13;;;18.02;100.00
36354;BME280;22383;51.114;13.666;2023-07-13T05:19:04;69185.16;;;18.07;100.00
36354;BME280;22383;51.114;13.666;2023-07-13T05:21:32;69197.13;;;18.18;100.00
36354;BME280;22383;51.114;13.666;2023-07-13T05:24:00;69206.09;;;18.23;100.00
36354;BME280;22383;51.114;13.666;2023-07-13T05:26:45;69214.81;;;18.33;100.00
36354;BME280;22383;51.114;13.666;2023-07-13T05:29:13;69233.47;;;18.48;100.00
36354;BME280;22383;51.114;13.666;2023-07-13T05:31:41;69245.03;;;18.61;100.00
36354;BME280;22383;51.114;13.666;2023-07-13T05:34:08;69264.03;;;18.80;100.00
36354;BME280;22383;51.114;13.666;2023-07-13T05:36:40;69305.75;;;19.11;100.00
36354;BME280;22383;51.114;13.666;2023-07-13T05:39:07;69330.69;;;19.31;100.00
36354;BME280;22383;51.114;13.666;2023-07-13T05:41:36;69334.06;;;19.41;100.00
36354;BME280;22383;51.114;13.666;2023-07-13T05:44:03;69351.00;;;19.54;100.00
36354;BME280;22383;51.114;13.666;2023-07-13T05:46:31;69344.88;;;19.51;100.00
36354;BME280;22383;51.114;13.666;2023-07-13T05:48:59;69333.72;;;19.36;100.00
36354;BME280;22383;51.114;13.666;2023-07-13T05:51:26;69319.78;;;19.28;100.00
36354;BME280;22383;51.114;13.666;2023-07-13T05:53:54;69299.59;;;19.15;100.00
36354;BME280;22383;51.114;13.666;2023-07-13T05:56:21;69307.78;;;19.17;100.00
36354;BME280;22383;51.114;13.666;2023-07-13T05:58:49;69348.72;;;19.52;100.00
36354;BME280;22383;51.114;13.666;2023-07-13T06:01:17;69376.69;;;19.77;100.00
36354;BME280;22383;51.114;13.666;2023-07-13T06:03:45;69408.28;;;20.08;100.00
36354;BME280;22383;51.114;13.666;2023-07-13T06:06:13;69435.09;;;20.32;100.00
36354;BME280;22383;51.114;13.666;2023-07-13T06:08:41;69457.38;;;20.52;100.00
36354;BME280;22383;51.114;13.666;2023-07-13T06:11:17;69476.81;;;20.69;100.00
36354;BME280;22383;51.114;13.666;2023-07-13T06:13:44;69484.06;;;20.73;100.00
36354;BME280;22383;51.114;13.666;2023-07-13T06:16:13;69512.22;;;21.01;100.00
36354;BME280;22383;51.114;13.666;2023-07-13T06:18:41;69535.06;;;21.22;100.00
36354;BME280;22383;51.114;13.666;2023-07-13T06:21:09;69563.09;;;21.47;100.00
36354;BME280;22383;51.114;13.666;2023-07-13T06:23:38;69583.09;;;21.65;100.00
36354;BME280;22383;51.114;13.666;2023-07-13T06:26:06;69565.38;;;21.49;100.00
36354;BME280;22383;51.114;13.666;2023-07-13T06:28:35;69556.78;;;21.41;100.00
36354;BME280;22383;51.114;13.666;2023-07-13T06:31:06;69558.31;;;21.40;100.00
36354;BME280;22383;51.114;13.666;2023-07-13T06:33:34;69531.81;;;21.21;100.00
36354;BME280;22383;51.114;13.666;2023-07-13T06:36:03;69531.66;;;21.19;100.00
36354;BME280;22383;51.114;13.666;2023-07-13T06:38:31;69510.50;;;21.00;100.00
36354;BME280;22383;51.114;13.666;2023-07-13T06:40:59;69511.06;;;21.00;100.00
36354;BME280;22383;51.114;13.666;2023-07-13T06:43:30;69551.06;;;21.36;100.00
36354;BME280;22383;51.114;13.666;2023-07-13T06:45:59;69582.09;;;21.66;100.00
36354;BME280;22383;51.114;13.666;2023-07-13T06:48:27;69565.38;;;21.49;100.00
36354;BME280;22383;51.114;13.666;2023-07-13T06:50:55;69542.50;;;21.28;100.00
36354;BME280;22383;51.114;13.666;2023-07-13T06:53:23;69549.53;;;21.37;100.00
36354;BME280;22383;51.114;13.666;2023-07-13T06:55:50;69556.03;;;21.38;100.00
36354;BME280;22383;51.114;13.666;2023-07-13T06:58:19;69524.78;;;21.12;100.00
36354;BME280;22383;51.114;13.666;2023-07-13T07:00:50;69520.47;;;21.04;100.00
36354;BME280;22383;51.114;13.666;2023-07-13T07:03:21;69520.47;;;21.04;100.00
36354;BME280;22383;51.114;13.666;2023-07-13T07:05:49;69519.09;;;21.07;100.00
36354;BME280;22383;51.114;13.666;2023-07-13T07:08:16;69489.38;;;20.81;100.00
36354;BME280;22383;51.114;13.666;2023-07-13T07:10:44;69475.84;;;20.71;100.00
36354;BME280;22383;51.114;13.666;2023-07-13T07:13:12;69468.22;;;20.62;100.00
36354;BME280;22383;51.114;13.666;2023-07-13T07:15:40;69471.09;;;20.64;100.00
36354;BME280;22383;51.114;13.666;2023-07-13T07:18:07;69487.66;;;20.79;100.00
36354;BME280;22383;51.114;13.666;2023-07-13T07:20:35;69503.66;;;20.93;100.00
36354;BME280;22383;51.114;13.666;2023-07-13T07:23:02;69529.19;;;21.14;100.00
36354;BME280;22383;51.114;13.666;2023-07-13T07:25:30;69550.66;;;21.38;100.00
36354;BME280;22383;51.114;13.666;2023-07-13T07:27:59;69599.25;;;21.82;100.00
36354;BME280;22383;51.114;13.666;2023-07-13T07:30:30;69627.66;;;22.05;100.00
36354;BME280;22383;51.114;13.666;2023-07-13T07:33:00;69619.66;;;21.98;100.00
36354;BME280;22383;51.114;13.666;2023-07-13T07:35:32;69608.09;;;21.85;100.00
36354;BME280;22383;51.114;13.666;2023-07-13T07:38:05;69587.66;;;21.69;100.00
36354;BME280;22383;51.114;13.666;2023-07-13T07:40:37;69588.66;;;21.67;100.00
36354;BME280;22383;51.114;13.666;2023-07-13T07:43:08;69595.25;;;21.78;100.00
36354;BME280;22383;51.114;13.666;2023-07-13T07:45:37;69619.09;;;21.97;100.00
36354;BME280;22383;51.114;13.666;2023-07-13T07:48:05;69635.66;;;22.12;100.00
36354;BME280;22383;51.114;13.666;2023-07-13T07:50:33;69624.81;;;22.02;100.00
36354;BME280;22383;51.114;13.666;2023-07-13T07:53:00;69597.13;;;21.99;100.00
36354;BME280;22383;51.114;13.666;2023-07-13T07:55:29;69637.38;;;22.14;100.00
36354;BME280;22383;51.114;13.666;2023-07-13T07:58:00;69633.22;;;22.07;100.00
36354;BME280;22383;51.114;13.666;2023-07-13T08:00:30;69636.41;;;22.15;100.00
36354;BME280;22383;51.114;13.666;2023-07-13T08:03:18;69678.25;;;22.45;100.00
36354;BME280;22383;51.114;13.666;2023-07-13T08:05:52;69669.84;;;22.40;100.00
36354;BME280;22383;51.114;13.666;2023-07-13T08:08:23;69670.56;;;22.43;100.00
36354;BME280;22383;51.114;13.666;2023-07-13T08:10:51;69696.16;;;22.64;100.00
36354;BME280;22383;51.114;13.666;2023-07-13T08:13:23;69733.31;;;22.97;100.00
36354;BME280;22383;51.114;13.666;2023-07-13T08:15:51;69741.53;;;23.07;100.00
36354;BME280;22383;51.114;13.666;2023-07-13T08:18:19;69741.13;;;23.09;99.30
36354;BME280;22383;51.114;13.666;2023-07-13T08:20:46;69761.53;;;23.25;97.72
36354;BME280;22383;51.114;13.666;2023-07-13T08:23:14;69767.69;;;23.28;95.48
36354;BME280;22383;51.114;13.666;2023-07-13T08:25:53;69753.94;;;23.16;93.28
36354;BME280;22383;51.114;13.666;2023-07-13T08:28:21;69784.25;;;23.43;95.54
36354;BME280;22383;51.114;13.666;2023-07-13T08:30:49;69779.56;;;23.63;96.00
36354;BME280;22383;51.114;13.666;2023-07-13T08:33:18;69809.59;;;23.68;93.03
36354;BME280;22383;51.114;13.666;2023-07-13T08:35:48;69788.44;;;23.49;89.04
36354;BME280;22383;51.114;13.666;2023-07-13T08:38:17;69749.53;;;23.14;91.00
36354;BME280;22383;51.114;13.666;2023-07-13T08:40:50;69737.66;;;23.06;91.08
36354;BME280;22383;51.114;13.666;2023-07-13T08:43:25;69728.50;;;22.98;92.83
36354;BME280;22383;51.114;13.666;2023-07-13T08:46:01;69738.31;;;22.99;95.07
36354;BME280;22383;51.114;13.666;2023-07-13T08:54:02;69676.28;;;22.49;96.97
36354;BME280;22383;51.114;13.666;2023-07-13T08:56:32;69679.16;;;22.51;96.51
36354;BME280;22383;51.114;13.666;2023-07-13T08:59:04;69671.13;;;22.44;93.22
36354;BME280;22383;51.114;13.666;2023-07-13T09:04:52;69688.16;;;22.57;95.98
36354;BME280;22383;51.114;13.666;2023-07-13T09:10:26;69770.28;;;23.35;93.30
36354;BME280;22383;51.114;13.666;2023-07-13T09:15:54;69775.09;;;23.35;92.95
36354;BME280;22383;51.114;13.666;2023-07-13T09:18:30;69768.97;;;23.32;93.18
36354;BME280;22383;51.114;13.666;2023-07-13T09:21:07;69793.16;;;23.56;91.57
36354;BME280;22383;51.114;13.666;2023-07-13T09:23:37;69795.84;;;23.56;89.13
36354;BME280;22383;51.114;13.666;2023-07-13T09:26:19;69785.56;;;23.47;94.34
36354;BME280;22383;51.114;13.666;2023-07-13T09:28:57;69718.06;;;22.86;91.19
36354;BME280;22383;51.114;13.666;2023-07-13T09:31:34;69731.03;;;22.95;90.10
36354;BME280;22383;51.114;13.666;2023-07-13T09:34:10;69751.97;;;23.19;90.60
36354;BME280;22383;51.114;13.666;2023-07-13T09:36:38;69786.88;;;23.50;84.88
36354;BME280;22383;51.114;13.666;2023-07-13T09:41:57;69857.97;;;24.33;84.96
36354;BME280;22383;51.114;13.666;2023-07-13T09:44:49;69859.69;;;24.35;85.63
36354;BME280;22383;51.114;13.666;2023-07-13T09:47:24;69901.19;;;24.50;83.69
36354;BME280;22383;51.114;13.666;2023-07-13T09:50:02;69908.09;;;24.57;84.69
36354;BME280;22383;51.114;13.666;2023-07-13T09:52:41;69919.16;;;24.69;80.46
36354;BME280;22383;51.114;13.666;2023-07-13T09:57:52;69919.56;;;24.67;79.09
36354;BME280;22383;51.114;13.666;2023-07-13T10:00:27;69925.84;;;24.72;78.64
36354;BME280;22383;51.114;13.666;2023-07-13T10:03:14;69940.34;;;24.88;76.71
36354;BME280;22383;51.114;13.666;2023-07-13T10:05:45;69954.50;;;24.98;75.63
36354;BME280;22383;51.114;13.666;2023-07-13T10:08:27;69950.31;;;24.92;78.29
36354;BME280;22383;51.114;13.666;2023-07-13T10:11:00;69963.22;;;25.08;76.66
36354;BME280;22383;51.114;13.666;2023-07-13T10:13:29;70006.81;;;25.47;69.89
36354;BME280;22383;51.114;13.666;2023-07-13T10:15:59;69996.88;;;25.36;70.64
36354;BME280;22383;51.114;13.666;2023-07-13T10:18:28;70004.03;;;25.38;71.13
36354;BME280;22383;51.114;13.666;2023-07-13T10:21:13;69963.09;;;25.06;72.59
36354;BME280;22383;51.114;13.666;2023-07-13T10:23:57;69941.16;;;24.84;73.79
36354;BME280;22383;51.114;13.666;2023-07-13T10:26:32;69930.00;;;24.79;72.77
36354;BME280;22383;51.114;13.666;2023-07-13T10:29:06;69955.22;;;25.01;75.43
36354;BME280;22383;51.114;13.666;2023-07-13T10:31:38;69967.09;;;25.09;73.50
36354;BME280;22383;51.114;13.666;2023-07-13T10:34:09;70013.50;;;25.51;76.82
36354;BME280;22383;51.114;13.666;2023-07-13T10:36:46;70059.53;;;25.95;77.10
36354;BME280;22383;51.114;13.666;2023-07-13T10:39:23;70035.28;;;25.71;71.06
36354;BME280;22383;51.114;13.666;2023-07-13T10:42:00;70056.50;;;25.90;70.44
36354;BME280;22383;51.114;13.666;2023-07-13T10:44:31;70080.56;;;26.11;69.98
36354;BME280;22383;51.114;13.666;2023-07-13T10:47:02;69992.88;;;25.33;66.77
36354;BME280;22383;51.114;13.666;2023-07-13T10:49:32;69919.16;;;24.69;68.59
36354;BME280;22383;51.114;13.666;2023-07-13T10:52:00;69858.84;;;24.12;71.80
36354;BME280;22383;51.114;13.666;2023-07-13T10:54:36;69841.34;;;23.92;71.15
36354;BME280;22383;51.114;13.666;2023-07-13T10:59:36;69768.97;;;23.32;72.31
36354;BME280;22383;51.114;13.666;2023-07-13T11:02:10;69743.81;;;23.09;73.57
36354;BME280;22383;51.114;13.666;2023-07-13T11:04:44;69743.22;;;23.09;74.81
36354;BME280;22383;51.114;13.666;2023-07-13T11:07:30;69749.53;;;23.14;76.74
36354;BME280;22383;51.114;13.666;2023-07-13T11:10:03;69784.25;;;23.43;77.26
36354;BME280;22383;51.114;13.666;2023-07-13T11:15:28;69806.00;;;23.63;75.42
36354;BME280;22383;51.114;13.666;2023-07-13T11:18:02;69836.50;;;23.92;75.64
36354;BME280;22383;51.114;13.666;2023-07-13T11:20:38;69917.66;;;24.63;75.24
36354;BME280;22383;51.114;13.666;2023-07-13T11:25:39;69991.16;;;25.31;71.88
36354;BME280;22383;51.114;13.666;2023-07-13T11:28:16;69948.34;;;24.95;73.24
36354;BME280;22383;51.114;13.666;2023-07-13T11:30:47;69940.34;;;24.88;70.88
36354;BME280;22383;51.114;13.666;2023-07-13T11:33:22;69881.75;;;24.33;73.44
36354;BME280;22383;51.114;13.666;2023-07-13T11:38:27;69925.53;;;24.94;75.65
36354;BME280;22383;51.114;13.666;2023-07-13T11:41:15;69945.75;;;24.88;71.53
36354;BME280;22383;51.114;13.666;2023-07-13T11:43:44;69959.22;;;25.05;74.99
36354;BME280;22383;51.114;13.666;2023-07-13T11:46:20;69974.13;;;25.18;70.46
36354;BME280;22383;51.114;13.666;2023-07-13T11:48:55;69933.31;;;24.79;69.20
36354;BME280;22383;51.114;13.666;2023-07-13T11:51:32;69906.38;;;24.55;73.79
36354;BME280;22383;51.114;13.666;2023-07-13T11:56:50;69966.53;;;25.09;70.36
36354;BME280;22383;51.114;13.666;2023-07-13T11:59:18;70011.78;;;25.50;70.76
36354;BME280;22383;51.114;13.666;2023-07-13T12:01:50;70057.47;;;25.88;70.44
36354;BME280;22383;51.114;13.666;2023-07-13T12:04:38;70043.44;;;25.80;66.26
36354;BME280;22383;51.114;13.666;2023-07-13T12:07:37;70028.25;;;25.62;69.02
36354;BME280;22383;51.114;13.666;2023-07-13T12:10:21;70051.19;;;25.82;68.65
36354;BME280;22383;51.114;13.666;2023-07-13T12:12:55;70077.13;;;26.08;71.15
36354;BME280;22383;51.114;13.666;2023-07-13T12:15:27;70080.56;;;26.11;66.75
36354;BME280;22383;51.114;13.666;2023-07-13T12:17:56;70092.78;;;26.25;67.76
36354;BME280;22383;51.114;13.666;2023-07-13T12:20:33;70099.06;;;26.30;64.02
36354;BME280;22383;51.114;13.666;2023-07-13T12:23:35;70128.31;;;26.56;64.83
36354;BME280;22383;51.114;13.666;2023-07-13T12:26:06;70126.59;;;26.55;63.76
36354;BME280;22383;51.114;13.666;2023-07-13T12:28:48;70079.44;;;26.10;62.99
36354;BME280;22383;51.114;13.666;2023-07-13T12:31:39;69976.41;;;25.20;62.92
36354;BME280;22383;51.114;13.666;2023-07-13T12:34:14;69922.69;;;24.91;61.80
36354;BME280;22383;51.114;13.666;2023-07-13T12:37:00;69895.06;;;24.47;62.96
36354;BME280;22383;51.114;13.666;2023-07-13T12:39:48;69888.06;;;24.39;63.52
36354;BME280;22383;51.114;13.666;2023-07-13T12:42:28;69961.78;;;25.02;63.78
36354;BME280;22383;51.114;13.666;2023-07-13T12:45:02;70045.03;;;25.79;61.98
36354;BME280;22383;51.114;13.666;2023-07-13T12:47:41;70070.84;;;26.02;62.42
36354;BME280;22383;51.114;13.666;2023-07-13T12:50:19;70088.59;;;26.18;59.82
36354;BME280;22383;51.114;13.666;2023-07-13T12:53:01;70121.84;;;26.48;59.27
36354;BME280;22383;51.114;13.666;2023-07-13T12:55:50;70056.91;;;25.88;58.48
36354;BME280;22383;51.114;13.666;2023-07-13T12:58:35;70065.66;;;25.98;56.36
36354;BME280;22383;51.114;13.666;2023-07-13T13:01:05;70125.84;;;26.52;59.81
36354;BME280;22383;51.114;13.666;2023-07-13T13:03:38;70139.22;;;26.66;57.71
36354;BME280;22383;51.114;13.666;2023-07-13T13:08:43;70010.22;;;25.51;56.30
36354;BME280;22383;51.114;13.666;2023-07-13T13:11:11;70015.06;;;25.50;58.52
36354;BME280;22383;51.114;13.666;2023-07-13T13:13:39;70051.91;;;25.85;59.39
36354;BME280;22383;51.114;13.666;2023-07-13T13:18:55;70119.00;;;26.46;55.39
36354;BME280;22383;51.114;13.666;2023-07-13T13:21:25;70092.03;;;26.21;55.87
36354;BME280;22383;51.114;13.666;2023-07-13T13:23:52;70016.63;;;25.76;56.99
36354;BME280;22383;51.114;13.666;2023-07-13T13:26:21;70049.47;;;25.81;58.71
36354;BME280;22383;51.114;13.666;2023-07-13T13:28:49;70054.03;;;25.85;58.10
36354;BME280;22383;51.114;13.666;2023-07-13T13:31:17;70048.88;;;25.80;59.42
36354;BME280;22383;51.114;13.666;2023-07-13T13:33:46;70079.59;;;26.13;58.47
36354;BME280;22383;51.114;13.666;2023-07-13T13:36:20;70094.19;;;26.21;57.00
36354;BME280;22383;51.114;13.666;2023-07-13T13:38:52;70090.47;;;26.22;57.08
36354;BME280;22383;51.114;13.666;2023-07-13T13:41:20;70055.91;;;25.89;56.36
36354;BME280;22383;51.114;13.666;2023-07-13T13:43:48;70065.94;;;25.93;59.33
36354;BME280;22383;51.114;13.666;2023-07-13T13:46:21;70101.22;;;26.30;60.25